sensor_id;sensor_type;location;lat;lon;timestamp;pressure;altitude;pressure_sealevel;temperature;humidity
58785;BME280;44557;51.862;19.378;2022-10-31T00:00:58;99569.39;;;13.45;91.93
58785;BME280;44557;51.862;19.378;2022-10-31T00:02:13;99568.52;;;13.49;91.92
58785;BME280;44557;51.862;19.378;2022-10-31T00:03:15;99571.13;;;13.41;92.13
58785;BME280;44557;51.862;19.378;2022-10-31T00:04:16;99574.27;;;13.41;92.27
58785;BME280;44557;51.862;19.378;2022-10-31T00:05:16;99576.92;;;13.36;92.53
58785;BME280;44557;51.862;19.378;2022-10-31T00:06:17;99573.14;;;13.33;92.83
58785;BME280;44557;51.862;19.378;2022-10-31T00:07:18;99574.76;;;13.34;92.72
58785;BME280;44557;51.862;19.378;2022-10-31T00:08:19;99579.83;;;13.35;92.69
58785;BME280;44557;51.862;19.378;2022-10-31T00:09:20;99578.81;;;13.35;92.70
58785;BME280;44557;51.862;19.378;2022-10-31T00:10:21;99578.92;;;13.37;92.64
58785;BME280;44557;51.862;19.378;2022-10-31T00:11:23;99581.73;;;13.41;92.38
58785;BME280;44557;51.862;19.378;2022-10-31T00:12:25;99582.61;;;13.38;92.40
58785;BME280;44557;51.862;19.378;2022-10-31T00:13:26;99583.89;;;13.40;92.50
58785;BME280;44557;51.862;19.378;2022-10-31T00:14:27;99582.55;;;13.33;92.53
58785;BME280;44557;51.862;19.378;2022-10-31T00:15:28;99586.83;;;13.34;92.60
58785;BME280;44557;51.862;19.378;2022-10-31T00:16:29;99586.16;;;13.36;92.25
58785;BME280;44557;51.862;19.378;2022-10-31T00:17:30;99588.21;;;13.36;92.32
58785;BME280;44557;51.862;19.378;2022-10-31T00:18:31;99586.01;;;13.33;92.61
58785;BME280;44557;51.862;19.378;2022-10-31T00:19:32;99587.77;;;13.30;92.54
58785;BME280;44557;51.862;19.378;2022-10-31T00:20:33;99591.75;;;13.28;92.88
58785;BME280;44557;51.862;19.378;2022-10-31T00:21:34;99586.60;;;13.34;92.82
58785;BME280;44557;51.862;19.378;2022-10-31T00:22:35;99588.77;;;13.35;92.62
58785;BME280;44557;51.862;19.378;2022-10-31T00:23:36;99587.16;;;13.31;92.61
58785;BME280;44557;51.862;19.378;2022-10-31T00:24:37;99589.80;;;13.32;92.46
58785;BME280;44557;51.862;19.378;2022-10-31T00:25:39;99589.59;;;13.30;92.61
58785;BME280;44557;51.862;19.378;2022-10-31T00:26:40;99586.82;;;13.27;92.90
58785;BME280;44557;51.862;19.378;2022-10-31T00:27:41;99586.79;;;13.25;92.78
58785;BME280;44557;51.862;19.378;2022-10-31T00:28:42;99587.63;;;13.24;92.97
58785;BME280;44557;51.862;19.378;2022-10-31T00:29:43;99591.55;;;13.23;92.72
58785;BME280;44557;51.862;19.378;2022-10-31T00:30:44;99591.98;;;13.21;92.95
58785;BME280;44557;51.862;19.378;2022-10-31T00:31:45;99592.73;;;13.23;92.64
58785;BME280;44557;51.862;19.378;2022-10-31T00:32:45;99590.49;;;13.19;92.65
58785;BME280;44557;51.862;19.378;2022-10-31T00:33:46;99592.11;;;13.20;92.75
58785;BME280;44557;51.862;19.378;2022-10-31T00:34:47;99590.73;;;13.18;92.90
58785;BME280;44557;51.862;19.378;2022-10-31T00:35:49;99593.77;;;13.16;92.91
58785;BME280;44557;51.862;19.378;2022-10-31T00:36:51;99594.41;;;13.20;92.91
58785;BME280;44557;51.862;19.378;2022-10-31T00:37:52;99596.09;;;13.14;93.17
58785;BME280;44557;51.862;19.378;2022-10-31T00:38:52;99590.22;;;13.14;93.24
58785;BME280;44557;51.862;19.378;2022-10-31T00:39:53;99595.62;;;13.15;93.40
58785;BME280;44557;51.862;19.378;2022-10-31T00:40:54;99594.32;;;13.17;93.53
58785;BME280;44557;51.862;19.378;2022-10-31T00:41:55;99593.47;;;13.21;93.08
58785;BME280;44557;51.862;19.378;2022-10-31T00:42:55;99592.56;;;13.16;93.11
58785;BME280;44557;51.862;19.378;2022-10-31T00:43:56;99592.51;;;13.17;93.24
58785;BME280;44557;51.862;19.378;2022-10-31T00:44:57;99595.76;;;13.14;93.31
58785;BME280;44557;51.862;19.378;2022-10-31T00:45:58;99593.83;;;13.10;93.47
58785;BME280;44557;51.862;19.378;2022-10-31T00:46:58;99595.24;;;13.09;93.60
58785;BME280;44557;51.862;19.378;2022-10-31T00:47:59;99595.29;;;13.03;93.83
58785;BME280;44557;51.862;19.378;2022-10-31T00:49:00;99593.23;;;13.15;93.71
58785;BME280;44557;51.862;19.378;2022-10-31T00:50:01;99595.39;;;13.13;93.32
58785;BME280;44557;51.862;19.378;2022-10-31T00:51:02;99594.14;;;13.13;93.47
58785;BME280;44557;51.862;19.378;2022-10-31T00:52:03;99595.84;;;13.11;93.44
58785;BME280;44557;51.862;19.378;2022-10-31T00:53:04;99598.80;;;13.13;93.74
58785;BME280;44557;51.862;19.378;2022-10-31T00:54:05;99595.98;;;13.14;93.42
58785;BME280;44557;51.862;19.378;2022-10-31T00:55:06;99594.38;;;13.13;93.51
58785;BME280;44557;51.862;19.378;2022-10-31T00:56:07;99595.69;;;13.14;93.35
58785;BME280;44557;51.862;19.378;2022-10-31T00:57:08;99595.19;;;13.10;93.55
58785;BME280;44557;51.862;19.378;2022-10-31T00:58:08;99596.90;;;13.10;93.72
58785;BME280;44557;51.862;19.378;2022-10-31T00:59:09;99598.80;;;13.07;93.84
58785;BME280;44557;51.862;19.378;2022-10-31T01:00:10;99596.75;;;13.07;93.89
58785;BME280;44557;51.862;19.378;2022-10-31T01:01:11;99597.72;;;13.02;93.98
58785;BME280;44557;51.862;19.378;2022-10-31T01:02:12;99600.86;;;13.04;94.07
58785;BME280;44557;51.862;19.378;2022-10-31T01:03:13;99604.73;;;13.02;93.79
58785;BME280;44557;51.862;19.378;2022-10-31T01:04:14;99600.06;;;13.07;93.62
58785;BME280;44557;51.862;19.378;2022-10-31T01:05:14;99599.71;;;13.03;93.61
58785;BME280;44557;51.862;19.378;2022-10-31T01:06:15;99600.76;;;13.03;93.73
58785;BME280;44557;51.862;19.378;2022-10-31T01:07:16;99603.92;;;12.98;94.16
58785;BME280;44557;51.862;19.378;2022-10-31T01:08:17;99602.77;;;12.96;94.25
58785;BME280;44557;51.862;19.378;2022-10-31T01:09:18;99599.42;;;13.01;93.98
58785;BME280;44557;51.862;19.378;2022-10-31T01:10:19;99603.64;;;12.99;93.95
58785;BME280;44557;51.862;19.378;2022-10-31T01:11:22;99603.14;;;13.02;93.81
58785;BME280;44557;51.862;19.378;2022-10-31T01:12:23;99600.23;;;12.99;94.06
58785;BME280;44557;51.862;19.378;2022-10-31T01:13:23;99598.71;;;12.95;94.23
58785;BME280;44557;51.862;19.378;2022-10-31T01:14:24;99600.14;;;12.95;94.41
58785;BME280;44557;51.862;19.378;2022-10-31T01:15:25;99597.70;;;12.95;94.00
58785;BME280;44557;51.862;19.378;2022-10-31T01:16:27;99598.92;;;12.97;94.17
58785;BME280;44557;51.862;19.378;2022-10-31T01:17:29;99600.02;;;12.90;94.44
58785;BME280;44557;51.862;19.378;2022-10-31T01:18:31;99596.21;;;12.90;94.37
58785;BME280;44557;51.862;19.378;2022-10-31T01:19:32;99592.53;;;12.87;94.49
58785;BME280;44557;51.862;19.378;2022-10-31T01:20:32;99592.47;;;12.88;94.57
58785;BME280;44557;51.862;19.378;2022-10-31T01:21:33;99593.74;;;12.89;94.71
58785;BME280;44557;51.862;19.378;2022-10-31T01:22:34;99590.61;;;12.86;94.82
58785;BME280;44557;51.862;19.378;2022-10-31T01:23:36;99590.62;;;12.87;94.69
58785;BME280;44557;51.862;19.378;2022-10-31T01:24:37;99590.80;;;12.88;94.80
58785;BME280;44557;51.862;19.378;2022-10-31T01:25:37;99592.66;;;12.87;94.67
58785;BME280;44557;51.862;19.378;2022-10-31T01:26:38;99591.85;;;12.86;94.78
58785;BME280;44557;51.862;19.378;2022-10-31T01:27:39;99589.60;;;12.87;94.52
58785;BME280;44557;51.862;19.378;2022-10-31T01:28:51;99588.34;;;12.90;94.31
58785;BME280;44557;51.862;19.378;2022-10-31T01:29:52;99585.45;;;12.82;94.61
58785;BME280;44557;51.862;19.378;2022-10-31T01:30:53;99584.54;;;12.78;94.74
58785;BME280;44557;51.862;19.378;2022-10-31T01:31:53;99584.99;;;12.80;94.86
58785;BME280;44557;51.862;19.378;2022-10-31T01:32:54;99582.73;;;12.78;95.10
58785;BME280;44557;51.862;19.378;2022-10-31T01:33:56;99584.25;;;12.82;94.51
58785;BME280;44557;51.862;19.378;2022-10-31T01:34:57;99585.90;;;12.76;94.86
58785;BME280;44557;51.862;19.378;2022-10-31T01:35:57;99584.13;;;12.75;94.99
58785;BME280;44557;51.862;19.378;2022-10-31T01:36:58;99582.16;;;12.78;94.73
58785;BME280;44557;51.862;19.378;2022-10-31T01:37:59;99581.38;;;12.75;94.60
58785;BME280;44557;51.862;19.378;2022-10-31T01:39:04;99586.08;;;12.77;94.48
58785;BME280;44557;51.862;19.378;2022-10-31T01:40:06;99585.14;;;12.71;94.53
58785;BME280;44557;51.862;19.378;2022-10-31T01:41:08;99584.22;;;12.69;94.84
58785;BME280;44557;51.862;19.378;2022-10-31T01:42:16;99583.27;;;12.69;94.72
58785;BME280;44557;51.862;19.378;2022-10-31T01:43:19;99586.20;;;12.72;94.52
58785;BME280;44557;51.862;19.378;2022-10-31T01:45:21;99584.40;;;12.70;94.63
58785;BME280;44557;51.862;19.378;2022-10-31T01:46:35;99583.68;;;12.73;94.67
58785;BME280;44557;51.862;19.378;2022-10-31T01:47:43;99584.68;;;12.65;95.01
58785;BME280;44557;51.862;19.378;2022-10-31T01:48:46;99583.52;;;12.60;95.70
58785;BME280;44557;51.862;19.378;2022-10-31T01:49:51;99583.11;;;12.67;95.37
58785;BME280;44557;51.862;19.378;2022-10-31T01:50:54;99584.34;;;12.64;95.32
58785;BME280;44557;51.862;19.378;2022-10-31T01:52:12;99582.48;;;12.66;95.28
58785;BME280;44557;51.862;19.378;2022-10-31T01:53:15;99583.04;;;12.66;95.20
58785;BME280;44557;51.862;19.378;2022-10-31T01:54:19;99581.07;;;12.69;95.03
58785;BME280;44557;51.862;19.378;2022-10-31T01:55:32;99580.56;;;12.68;94.90
58785;BME280;44557;51.862;19.378;2022-10-31T01:56:38;99576.98;;;12.67;94.82
58785;BME280;44557;51.862;19.378;2022-10-31T01:57:42;99579.89;;;12.69;94.96
58785;BME280;44557;51.862;19.378;2022-10-31T01:58:46;99581.49;;;12.70;94.92
58785;BME280;44557;51.862;19.378;2022-10-31T01:59:49;99579.48;;;12.66;95.11
58785;BME280;44557;51.862;19.378;2022-10-31T02:00:58;99578.65;;;12.67;95.44
58785;BME280;44557;51.862;19.378;2022-10-31T02:02:00;99581.77;;;12.66;95.30
58785;BME280;44557;51.862;19.378;2022-10-31T02:03:01;99579.95;;;12.69;95.10
58785;BME280;44557;51.862;19.378;2022-10-31T02:04:03;99580.30;;;12.67;94.88
58785;BME280;44557;51.862;19.378;2022-10-31T02:05:07;99582.15;;;12.68;94.93
58785;BME280;44557;51.862;19.378;2022-10-31T02:06:19;99581.03;;;12.67;95.15
58785;BME280;44557;51.862;19.378;2022-10-31T02:07:30;99583.66;;;12.69;95.20
58785;BME280;44557;51.862;19.378;2022-10-31T02:08:33;99583.96;;;12.68;95.17
58785;BME280;44557;51.862;19.378;2022-10-31T02:09:36;99584.58;;;12.71;94.77
58785;BME280;44557;51.862;19.378;2022-10-31T02:10:38;99583.91;;;12.69;94.92
58785;BME280;44557;51.862;19.378;2022-10-31T02:11:42;99582.77;;;12.70;94.90
58785;BME280;44557;51.862;19.378;2022-10-31T02:12:44;99584.54;;;12.69;94.89
58785;BME280;44557;51.862;19.378;2022-10-31T02:13:47;99586.30;;;12.67;95.15
58785;BME280;44557;51.862;19.378;2022-10-31T02:14:48;99586.08;;;12.65;95.15
58785;BME280;44557;51.862;19.378;2022-10-31T02:15:52;99589.90;;;12.69;95.07
58785;BME280;44557;51.862;19.378;2022-10-31T02:16:54;99589.78;;;12.67;94.93
58785;BME280;44557;51.862;19.378;2022-10-31T02:17:55;99590.45;;;12.68;94.98
58785;BME280;44557;51.862;19.378;2022-10-31T02:18:56;99587.91;;;12.68;94.99
58785;BME280;44557;51.862;19.378;2022-10-31T02:20:07;99587.82;;;12.68;94.84
58785;BME280;44557;51.862;19.378;2022-10-31T02:21:16;99590.36;;;12.65;94.89
58785;BME280;44557;51.862;19.378;2022-10-31T02:22:44;99590.41;;;12.73;94.41
58785;BME280;44557;51.862;19.378;2022-10-31T02:24:32;99588.28;;;12.79;94.19
58785;BME280;44557;51.862;19.378;2022-10-31T02:25:45;99588.40;;;12.71;94.28
58785;BME280;44557;51.862;19.378;2022-10-31T02:32:10;99587.96;;;12.58;94.99
58785;BME280;44557;51.862;19.378;2022-10-31T02:36:17;99591.34;;;12.57;94.79
58785;BME280;44557;51.862;19.378;2022-10-31T02:40:22;99588.95;;;12.54;94.52
58785;BME280;44557;51.862;19.378;2022-10-31T02:41:37;99587.95;;;12.53;94.74
58785;BME280;44557;51.862;19.378;2022-10-31T02:43:02;99587.30;;;12.46;95.04
58785;BME280;44557;51.862;19.378;2022-10-31T02:44:21;99590.41;;;12.41;95.34
58785;BME280;44557;51.862;19.378;2022-10-31T02:45:30;99587.51;;;12.45;94.98
58785;BME280;44557;51.862;19.378;2022-10-31T02:46:49;99590.41;;;12.50;95.12
58785;BME280;44557;51.862;19.378;2022-10-31T02:47:55;99594.63;;;12.48;94.78
58785;BME280;44557;51.862;19.378;2022-10-31T02:49:05;99596.21;;;12.45;94.92
58785;BME280;44557;51.862;19.378;2022-10-31T02:50:16;99598.17;;;12.39;95.00
58785;BME280;44557;51.862;19.378;2022-10-31T02:51:18;99598.61;;;12.35;95.39
58785;BME280;44557;51.862;19.378;2022-10-31T02:52:21;99599.01;;;12.38;95.30
58785;BME280;44557;51.862;19.378;2022-10-31T02:53:24;99596.02;;;12.34;95.10
58785;BME280;44557;51.862;19.378;2022-10-31T02:54:26;99597.91;;;12.33;95.23
58785;BME280;44557;51.862;19.378;2022-10-31T02:56:28;99597.83;;;12.27;95.39
58785;BME280;44557;51.862;19.378;2022-10-31T02:57:33;99598.91;;;12.29;95.15
58785;BME280;44557;51.862;19.378;2022-10-31T02:58:39;99598.14;;;12.33;95.09
58785;BME280;44557;51.862;19.378;2022-10-31T02:59:47;99601.89;;;12.29;94.97
58785;BME280;44557;51.862;19.378;2022-10-31T03:02:30;99598.23;;;12.14;95.41
58785;BME280;44557;51.862;19.378;2022-10-31T03:09:59;99594.89;;;11.98;95.06
58785;BME280;44557;51.862;19.378;2022-10-31T03:11:07;99594.42;;;11.99;95.09
58785;BME280;44557;51.862;19.378;2022-10-31T03:12:15;99594.11;;;11.94;94.99
58785;BME280;44557;51.862;19.378;2022-10-31T03:15:54;99595.16;;;11.92;95.10
58785;BME280;44557;51.862;19.378;2022-10-31T03:17:02;99596.10;;;11.82;95.70
58785;BME280;44557;51.862;19.378;2022-10-31T03:18:17;99594.60;;;11.84;95.42
58785;BME280;44557;51.862;19.378;2022-10-31T03:20:28;99595.71;;;11.87;95.62
58785;BME280;44557;51.862;19.378;2022-10-31T03:22:36;99595.61;;;11.84;95.22
58785;BME280;44557;51.862;19.378;2022-10-31T03:23:43;99597.73;;;11.83;95.31
58785;BME280;44557;51.862;19.378;2022-10-31T03:24:47;99597.64;;;11.83;95.50
58785;BME280;44557;51.862;19.378;2022-10-31T03:25:53;99593.38;;;11.78;95.38
58785;BME280;44557;51.862;19.378;2022-10-31T03:26:57;99598.13;;;11.78;95.47
58785;BME280;44557;51.862;19.378;2022-10-31T03:27:59;99600.05;;;11.84;95.09
58785;BME280;44557;51.862;19.378;2022-10-31T03:29:07;99604.86;;;11.82;94.86
58785;BME280;44557;51.862;19.378;2022-10-31T03:30:08;99601.10;;;11.83;94.87
58785;BME280;44557;51.862;19.378;2022-10-31T03:31:10;99604.20;;;11.81;94.98
58785;BME280;44557;51.862;19.378;2022-10-31T03:32:16;99605.84;;;11.73;95.00
58785;BME280;44557;51.862;19.378;2022-10-31T03:33:23;99605.98;;;11.68;95.18
58785;BME280;44557;51.862;19.378;2022-10-31T03:34:27;99603.25;;;11.64;95.00
58785;BME280;44557;51.862;19.378;2022-10-31T03:35:30;99604.52;;;11.62;95.14
58785;BME280;44557;51.862;19.378;2022-10-31T03:36:33;99607.29;;;11.66;95.15
58785;BME280;44557;51.862;19.378;2022-10-31T03:37:36;99607.08;;;11.69;94.87
58785;BME280;44557;51.862;19.378;2022-10-31T03:38:38;99607.55;;;11.72;94.74
58785;BME280;44557;51.862;19.378;2022-10-31T03:39:43;99610.88;;;11.68;94.73
58785;BME280;44557;51.862;19.378;2022-10-31T03:40:46;99610.77;;;11.69;94.76
58785;BME280;44557;51.862;19.378;2022-10-31T03:42:05;99609.95;;;11.68;94.85
58785;BME280;44557;51.862;19.378;2022-10-31T03:43:10;99611.48;;;11.64;95.11
58785;BME280;44557;51.862;19.378;2022-10-31T03:44:18;99608.55;;;11.63;94.96
58785;BME280;44557;51.862;19.378;2022-10-31T03:45:23;99612.23;;;11.54;95.38
58785;BME280;44557;51.862;19.378;2022-10-31T03:46:25;99613.34;;;11.51;95.24
58785;BME280;44557;51.862;19.378;2022-10-31T03:47:27;99615.27;;;11.58;95.39
58785;BME280;44557;51.862;19.378;2022-10-31T03:48:27;99615.70;;;11.56;94.74
58785;BME280;44557;51.862;19.378;2022-10-31T03:49:30;99618.73;;;11.43;95.39
58785;BME280;44557;51.862;19.378;2022-10-31T03:50:39;99621.75;;;11.43;95.70
58785;BME280;44557;51.862;19.378;2022-10-31T03:51:56;99619.17;;;11.46;95.48
58785;BME280;44557;51.862;19.378;2022-10-31T03:53:06;99621.55;;;11.49;95.02
58785;BME280;44557;51.862;19.378;2022-10-31T03:54:15;99626.83;;;11.49;94.80
58785;BME280;44557;51.862;19.378;2022-10-31T03:55:32;99629.30;;;11.38;94.94
58785;BME280;44557;51.862;19.378;2022-10-31T03:56:43;99627.14;;;11.35;95.09
58785;BME280;44557;51.862;19.378;2022-10-31T03:58:59;99632.40;;;11.29;95.06
58785;BME280;44557;51.862;19.378;2022-10-31T04:00:06;99626.70;;;11.26;94.83
58785;BME280;44557;51.862;19.378;2022-10-31T04:01:15;99630.98;;;11.29;94.96
58785;BME280;44557;51.862;19.378;2022-10-31T04:02:21;99627.88;;;11.28;94.81
58785;BME280;44557;51.862;19.378;2022-10-31T04:03:28;99630.47;;;11.26;94.68
58785;BME280;44557;51.862;19.378;2022-10-31T04:04:30;99628.29;;;11.21;94.82
58785;BME280;44557;51.862;19.378;2022-10-31T04:05:33;99627.42;;;11.16;94.96
58785;BME280;44557;51.862;19.378;2022-10-31T04:06:36;99626.05;;;11.13;95.14
58785;BME280;44557;51.862;19.378;2022-10-31T04:07:41;99627.21;;;11.20;94.82
58785;BME280;44557;51.862;19.378;2022-10-31T04:08:49;99628.28;;;11.19;94.50
58785;BME280;44557;51.862;19.378;2022-10-31T04:09:52;99631.38;;;11.22;94.38
58785;BME280;44557;51.862;19.378;2022-10-31T04:10:55;99630.55;;;11.19;94.49
58785;BME280;44557;51.862;19.378;2022-10-31T04:11:59;99632.20;;;11.20;94.22
58785;BME280;44557;51.862;19.378;2022-10-31T04:13:11;99632.58;;;11.18;93.84
58785;BME280;44557;51.862;19.378;2022-10-31T04:14:13;99634.38;;;11.11;94.17
58785;BME280;44557;51.862;19.378;2022-10-31T04:15:14;99629.23;;;11.07;94.00
58785;BME280;44557;51.862;19.378;2022-10-31T04:16:16;99628.94;;;11.03;93.94
58785;BME280;44557;51.862;19.378;2022-10-31T04:17:19;99633.89;;;10.98;94.03
58785;BME280;44557;51.862;19.378;2022-10-31T04:18:25;99635.61;;;10.96;94.12
58785;BME280;44557;51.862;19.378;2022-10-31T04:19:26;99634.48;;;11.02;94.00
58785;BME280;44557;51.862;19.378;2022-10-31T04:20:34;99636.27;;;11.01;93.79
58785;BME280;44557;51.862;19.378;2022-10-31T04:21:35;99640.16;;;10.97;93.50
58785;BME280;44557;51.862;19.378;2022-10-31T04:22:36;99640.12;;;10.85;93.76
58785;BME280;44557;51.862;19.378;2022-10-31T04:23:37;99642.05;;;10.77;94.13
58785;BME280;44557;51.862;19.378;2022-10-31T04:24:39;99637.73;;;10.77;93.96
58785;BME280;44557;51.862;19.378;2022-10-31T04:25:40;99638.27;;;10.79;93.62
58785;BME280;44557;51.862;19.378;2022-10-31T04:26:41;99638.44;;;10.80;93.83
58785;BME280;44557;51.862;19.378;2022-10-31T04:27:42;99638.25;;;10.70;93.92
58785;BME280;44557;51.862;19.378;2022-10-31T04:28:43;99636.28;;;10.65;94.22
58785;BME280;44557;51.862;19.378;2022-10-31T04:29:43;99633.63;;;10.68;94.19
58785;BME280;44557;51.862;19.378;2022-10-31T04:30:44;99633.94;;;10.68;93.91
58785;BME280;44557;51.862;19.378;2022-10-31T04:31:45;99634.34;;;10.77;93.74
58785;BME280;44557;51.862;19.378;2022-10-31T04:32:46;99630.19;;;10.73;93.73
58785;BME280;44557;51.862;19.378;2022-10-31T04:33:47;99629.56;;;10.78;93.42
58785;BME280;44557;51.862;19.378;2022-10-31T04:34:48;99626.44;;;10.81;93.04
58785;BME280;44557;51.862;19.378;2022-10-31T04:35:48;99631.55;;;10.76;93.20
58785;BME280;44557;51.862;19.378;2022-10-31T04:36:49;99632.08;;;10.67;93.48
58785;BME280;44557;51.862;19.378;2022-10-31T04:37:50;99634.23;;;10.56;93.93
58785;BME280;44557;51.862;19.378;2022-10-31T04:38:51;99631.35;;;10.55;93.95
58785;BME280;44557;51.862;19.378;2022-10-31T04:39:51;99632.67;;;10.66;93.73
58785;BME280;44557;51.862;19.378;2022-10-31T04:40:52;99632.61;;;10.66;93.65
58785;BME280;44557;51.862;19.378;2022-10-31T04:41:53;99633.25;;;10.66;93.45
58785;BME280;44557;51.862;19.378;2022-10-31T04:42:54;99630.46;;;10.67;93.53
58785;BME280;44557;51.862;19.378;2022-10-31T04:43:55;99629.09;;;10.64;93.55
58785;BME280;44557;51.862;19.378;2022-10-31T04:44:55;99630.23;;;10.63;93.32
58785;BME280;44557;51.862;19.378;2022-10-31T04:45:56;99629.75;;;10.54;93.82
58785;BME280;44557;51.862;19.378;2022-10-31T04:46:57;99629.50;;;10.56;93.59
58785;BME280;44557;51.862;19.378;2022-10-31T04:47:58;99629.98;;;10.54;93.51
58785;BME280;44557;51.862;19.378;2022-10-31T04:48:58;99631.52;;;10.58;93.53
58785;BME280;44557;51.862;19.378;2022-10-31T04:50:00;99631.83;;;10.60;93.23
58785;BME280;44557;51.862;19.378;2022-10-31T04:51:01;99633.52;;;10.63;93.17
58785;BME280;44557;51.862;19.378;2022-10-31T04:52:03;99632.77;;;10.60;93.03
58785;BME280;44557;51.862;19.378;2022-10-31T04:53:04;99637.89;;;10.62;92.81
58785;BME280;44557;51.862;19.378;2022-10-31T04:54:04;99637.39;;;10.48;93.23
58785;BME280;44557;51.862;19.378;2022-10-31T04:55:06;99638.86;;;10.60;93.07
58785;BME280;44557;51.862;19.378;2022-10-31T04:56:06;99641.05;;;10.67;92.74
58785;BME280;44557;51.862;19.378;2022-10-31T04:57:07;99645.09;;;10.67;92.72
58785;BME280;44557;51.862;19.378;2022-10-31T04:58:08;99642.42;;;10.65;92.74
58785;BME280;44557;51.862;19.378;2022-10-31T04:59:09;99648.73;;;10.68;92.77
58785;BME280;44557;51.862;19.378;2022-10-31T05:00:11;99647.20;;;10.62;92.97
58785;BME280;44557;51.862;19.378;2022-10-31T05:01:12;99655.33;;;10.56;93.11
58785;BME280;44557;51.862;19.378;2022-10-31T05:02:14;99653.80;;;10.60;93.12
58785;BME280;44557;51.862;19.378;2022-10-31T05:03:14;99653.14;;;10.61;93.20
58785;BME280;44557;51.862;19.378;2022-10-31T05:04:15;99650.65;;;10.66;92.89
58785;BME280;44557;51.862;19.378;2022-10-31T05:05:17;99651.98;;;10.75;92.32
58785;BME280;44557;51.862;19.378;2022-10-31T05:06:19;99649.87;;;10.80;92.37
58785;BME280;44557;51.862;19.378;2022-10-31T05:07:19;99653.73;;;10.76;92.39
58785;BME280;44557;51.862;19.378;2022-10-31T05:08:20;99655.20;;;10.77;92.57
58785;BME280;44557;51.862;19.378;2022-10-31T05:09:21;99651.38;;;10.78;92.62
58785;BME280;44557;51.862;19.378;2022-10-31T05:10:27;99657.86;;;10.72;92.91
58785;BME280;44557;51.862;19.378;2022-10-31T05:11:28;99655.36;;;10.77;93.13
58785;BME280;44557;51.862;19.378;2022-10-31T05:12:29;99655.78;;;10.69;93.47
58785;BME280;44557;51.862;19.378;2022-10-31T05:13:30;99656.46;;;10.77;93.33
58785;BME280;44557;51.862;19.378;2022-10-31T05:14:31;99659.58;;;10.81;93.23
58785;BME280;44557;51.862;19.378;2022-10-31T05:15:32;99658.34;;;10.77;93.25
58785;BME280;44557;51.862;19.378;2022-10-31T05:16:33;99663.11;;;10.74;93.35
58785;BME280;44557;51.862;19.378;2022-10-31T05:17:33;99659.86;;;10.82;93.11
58785;BME280;44557;51.862;19.378;2022-10-31T05:18:34;99660.57;;;10.86;92.97
58785;BME280;44557;51.862;19.378;2022-10-31T05:19:35;99660.89;;;10.82;92.97
58785;BME280;44557;51.862;19.378;2022-10-31T05:20:36;99656.09;;;10.80;93.14
58785;BME280;44557;51.862;19.378;2022-10-31T05:21:37;99656.89;;;10.71;93.54
58785;BME280;44557;51.862;19.378;2022-10-31T05:22:45;99655.59;;;10.72;93.79
58785;BME280;44557;51.862;19.378;2022-10-31T05:23:46;99655.33;;;10.78;93.71
58785;BME280;44557;51.862;19.378;2022-10-31T05:24:47;99655.88;;;10.79;93.65
58785;BME280;44557;51.862;19.378;2022-10-31T05:25:47;99656.42;;;10.76;93.57
58785;BME280;44557;51.862;19.378;2022-10-31T05:26:49;99655.34;;;10.81;93.46
58785;BME280;44557;51.862;19.378;2022-10-31T05:27:51;99654.10;;;10.77;93.37
58785;BME280;44557;51.862;19.378;2022-10-31T05:28:52;99658.05;;;10.75;93.05
58785;BME280;44557;51.862;19.378;2022-10-31T05:29:53;99651.31;;;10.61;93.73
58785;BME280;44557;51.862;19.378;2022-10-31T05:30:54;99649.63;;;10.64;93.87
58785;BME280;44557;51.862;19.378;2022-10-31T05:31:55;99652.27;;;10.61;94.20
58785;BME280;44557;51.862;19.378;2022-10-31T05:32:56;99650.48;;;10.58;94.32
58785;BME280;44557;51.862;19.378;2022-10-31T05:33:57;99653.69;;;10.61;94.35
58785;BME280;44557;51.862;19.378;2022-10-31T05:34:58;99654.21;;;10.54;94.52
58785;BME280;44557;51.862;19.378;2022-10-31T05:35:59;99655.45;;;10.60;94.09
58785;BME280;44557;51.862;19.378;2022-10-31T05:36:59;99653.18;;;10.58;93.96
58785;BME280;44557;51.862;19.378;2022-10-31T05:38:00;99650.85;;;10.57;93.96
58785;BME280;44557;51.862;19.378;2022-10-31T05:39:01;99651.30;;;10.60;93.78
58785;BME280;44557;51.862;19.378;2022-10-31T05:40:03;99652.23;;;10.58;93.77
58785;BME280;44557;51.862;19.378;2022-10-31T05:41:05;99651.73;;;10.53;94.08
58785;BME280;44557;51.862;19.378;2022-10-31T05:42:06;99651.44;;;10.52;94.21
58785;BME280;44557;51.862;19.378;2022-10-31T05:43:07;99655.50;;;10.55;94.18
58785;BME280;44557;51.862;19.378;2022-10-31T05:44:08;99655.08;;;10.63;94.03
58785;BME280;44557;51.862;19.378;2022-10-31T05:45:11;99656.23;;;10.69;93.71
58785;BME280;44557;51.862;19.378;2022-10-31T05:46:12;99653.28;;;10.69;93.46
58785;BME280;44557;51.862;19.378;2022-10-31T05:47:13;99656.59;;;10.63;93.79
58785;BME280;44557;51.862;19.378;2022-10-31T05:48:14;99651.83;;;10.62;94.01
58785;BME280;44557;51.862;19.378;2022-10-31T05:49:14;99655.64;;;10.63;93.86
58785;BME280;44557;51.862;19.378;2022-10-31T05:50:15;99655.22;;;10.60;94.14
58785;BME280;44557;51.862;19.378;2022-10-31T05:51:16;99655.69;;;10.62;94.12
58785;BME280;44557;51.862;19.378;2022-10-31T05:52:17;99655.29;;;10.53;94.11
58785;BME280;44557;51.862;19.378;2022-10-31T05:53:18;99654.18;;;10.53;94.30
58785;BME280;44557;51.862;19.378;2022-10-31T05:54:19;99650.60;;;10.52;94.72
58785;BME280;44557;51.862;19.378;2022-10-31T05:55:20;99652.65;;;10.48;95.03
58785;BME280;44557;51.862;19.378;2022-10-31T05:56:20;99647.22;;;10.57;94.93
58785;BME280;44557;51.862;19.378;2022-10-31T05:57:21;99645.31;;;10.56;94.99
58785;BME280;44557;51.862;19.378;2022-10-31T05:58:22;99649.10;;;10.50;95.25